sensor_id;sensor_type;location;lat;lon;timestamp;temperature;humidity
38239;DHT22;24035;48.900;9.188;2023-01-09T00:02:08;7.70;99.90
38239;DHT22;24035;48.900;9.188;2023-01-09T00:04:34;7.70;99.90
38239;DHT22;24035;48.900;9.188;2023-01-09T00:07:00;7.70;1.00
38239;DHT22;24035;48.900;9.188;2023-01-09T00:09:25;7.70;1.00
38239;DHT22;24035;48.900;9.188;2023-01-09T00:11:52;7.80;1.00
38239;DHT22;24035;48.900;9.188;2023-01-09T00:14:19;7.70;1.00
38239;DHT22;24035;48.900;9.188;2023-01-09T00:16:47;7.60;99.90
38239;DHT22;24035;48.900;9.188;2023-01-09T00:19:13;7.70;99.90
38239;DHT22;24035;48.900;9.188;2023-01-09T00:21:39;7.60;99.90
38239;DHT22;24035;48.900;9.188;2023-01-09T00:24:05;7.70;1.00
38239;DHT22;24035;48.900;9.188;2023-01-09T00:26:31;7.60;1.00
38239;DHT22;24035;48.900;9.188;2023-01-09T00:28:57;7.60;1.00
38239;DHT22;24035;48.900;9.188;2023-01-09T00:31:23;7.60;1.00
38239;DHT22;24035;48.900;9.188;2023-01-09T00:34:04;7.60;1.00
38239;DHT22;24035;48.900;9.188;2023-01-09T00:36:30;7.70;1.00
38239;DHT22;24035;48.900;9.188;2023-01-09T00:38:56;7.60;1.00
38239;DHT22;24035;48.900;9.188;2023-01-09T00:41:30;7.60;1.00
38239;DHT22;24035;48.900;9.188;2023-01-09T00:44:00;7.60;1.00
38239;DHT22;24035;48.900;9.188;2023-01-09T00:46:31;7.70;99.90
38239;DHT22;24035;48.900;9.188;2023-01-09T00:48:59;7.60;99.90
38239;DHT22;24035;48.900;9.188;2023-01-09T00:51:26;7.60;99.90
38239;DHT22;24035;48.900;9.188;2023-01-09T00:53:52;7.60;99.90
38239;DHT22;24035;48.900;9.188;2023-01-09T00:56:19;7.60;1.00
38239;DHT22;24035;48.900;9.188;2023-01-09T00:58:46;7.50;99.90
38239;DHT22;24035;48.900;9.188;2023-01-09T01:01:12;7.50;99.90
38239;DHT22;24035;48.900;9.188;2023-01-09T01:03:38;7.60;1.00
38239;DHT22;24035;48.900;9.188;2023-01-09T01:06:04;7.60;1.00
38239;DHT22;24035;48.900;9.188;2023-01-09T01:08:48;7.60;1.00
38239;DHT22;24035;48.900;9.188;2023-01-09T01:11:14;7.60;99.90
38239;DHT22;24035;48.900;9.188;2023-01-09T01:13:40;7.60;1.00
38239;DHT22;24035;48.900;9.188;2023-01-09T01:16:08;7.60;99.90
38239;DHT22;24035;48.900;9.188;2023-01-09T01:18:34;7.60;99.90
38239;DHT22;24035;48.900;9.188;2023-01-09T01:21:00;7.70;99.90
38239;DHT22;24035;48.900;9.188;2023-01-09T01:23:25;7.70;1.00
38239;DHT22;24035;48.900;9.188;2023-01-09T01:25:51;7.70;1.00
38239;DHT22;24035;48.900;9.188;2023-01-09T01:28:17;7.60;99.90
38239;DHT22;24035;48.900;9.188;2023-01-09T01:30:43;7.70;1.00
38239;DHT22;24035;48.900;9.188;2023-01-09T01:33:10;7.70;1.00
38239;DHT22;24035;48.900;9.188;2023-01-09T01:35:36;7.60;1.00
38239;DHT22;24035;48.900;9.188;2023-01-09T01:38:02;7.60;1.00
38239;DHT22;24035;48.900;9.188;2023-01-09T01:40:29;7.70;1.00
38239;DHT22;24035;48.900;9.188;2023-01-09T01:42:55;7.70;1.00
38239;DHT22;24035;48.900;9.188;2023-01-09T01:45:24;7.60;1.00
38239;DHT22;24035;48.900;9.188;2023-01-09T01:50:24;7.60;99.90
38239;DHT22;24035;48.900;9.188;2023-01-09T01:55:24;7.50;99.90
38239;DHT22;24035;48.900;9.188;2023-01-09T01:57:53;7.50;99.90
38239;DHT22;24035;48.900;9.188;2023-01-09T02:00:26;7.50;99.90
38239;DHT22;24035;48.900;9.188;2023-01-09T02:02:54;7.60;99.90
38239;DHT22;24035;48.900;9.188;2023-01-09T02:05:19;7.60;99.90
38239;DHT22;24035;48.900;9.188;2023-01-09T02:07:45;7.60;99.90
38239;DHT22;24035;48.900;9.188;2023-01-09T02:10:11;7.60;99.90
38239;DHT22;24035;48.900;9.188;2023-01-09T02:12:36;7.70;99.90
38239;DHT22;24035;48.900;9.188;2023-01-09T02:15:09;7.70;70.70
38239;DHT22;24035;48.900;9.188;2023-01-09T02:20:56;7.60;99.90
38239;DHT22;24035;48.900;9.188;2023-01-09T02:26:43;7.60;38.70
38239;DHT22;24035;48.900;9.188;2023-01-09T02:40:35;7.60;30.00
38239;DHT22;24035;48.900;9.188;2023-01-09T02:43:04;7.60;70.60
38239;DHT22;24035;48.900;9.188;2023-01-09T02:45:31;7.60;99.90
38239;DHT22;24035;48.900;9.188;2023-01-09T02:47:57;7.60;99.90
38239;DHT22;24035;48.900;9.188;2023-01-09T02:56:25;7.50;99.90
38239;DHT22;24035;48.900;9.188;2023-01-09T03:01:46;7.50;1.00
38239;DHT22;24035;48.900;9.188;2023-01-09T03:07:35;7.50;36.10
38239;DHT22;24035;48.900;9.188;2023-01-09T03:12:41;7.50;1.00
38239;DHT22;24035;48.900;9.188;2023-01-09T03:15:10;7.50;1.00
38239;DHT22;24035;48.900;9.188;2023-01-09T03:17:41;7.50;1.00
38239;DHT22;24035;48.900;9.188;2023-01-09T03:20:09;7.50;1.00
38239;DHT22;24035;48.900;9.188;2023-01-09T03:22:39;7.60;99.90
38239;DHT22;24035;48.900;9.188;2023-01-09T03:25:05;7.70;99.90
38239;DHT22;24035;48.900;9.188;2023-01-09T03:27:31;7.70;1.00
38239;DHT22;24035;48.900;9.188;2023-01-09T03:29:57;7.70;1.00
38239;DHT22;24035;48.900;9.188;2023-01-09T03:32:22;7.70;1.00
38239;DHT22;24035;48.900;9.188;2023-01-09T03:34:48;7.80;1.00
38239;DHT22;24035;48.900;9.188;2023-01-09T03:37:14;7.70;1.00
38239;DHT22;24035;48.900;9.188;2023-01-09T03:39:39;7.70;1.00
38239;DHT22;24035;48.900;9.188;2023-01-09T03:42:05;7.70;1.00
38239;DHT22;24035;48.900;9.188;2023-01-09T03:44:31;7.70;1.00
38239;DHT22;24035;48.900;9.188;2023-01-09T03:46:57;7.70;1.00
38239;DHT22;24035;48.900;9.188;2023-01-09T03:49:22;7.70;1.00
38239;DHT22;24035;48.900;9.188;2023-01-09T03:51:48;7.70;1.00
38239;DHT22;24035;48.900;9.188;2023-01-09T03:54:13;7.70;1.00
38239;DHT22;24035;48.900;9.188;2023-01-09T03:56:39;7.70;99.90
38239;DHT22;24035;48.900;9.188;2023-01-09T03:59:05;7.60;33.00
38239;DHT22;24035;48.900;9.188;2023-01-09T04:01:32;7.40;99.90
38239;DHT22;24035;48.900;9.188;2023-01-09T04:03:57;7.20;1.00
38239;DHT22;24035;48.900;9.188;2023-01-09T04:06:23;6.90;1.00
38239;DHT22;24035;48.900;9.188;2023-01-09T04:08:48;6.80;1.00
38239;DHT22;24035;48.900;9.188;2023-01-09T04:11:14;6.70;99.90
38239;DHT22;24035;48.900;9.188;2023-01-09T04:13:42;6.60;1.00
38239;DHT22;24035;48.900;9.188;2023-01-09T04:16:09;6.50;1.00
38239;DHT22;24035;48.900;9.188;2023-01-09T04:18:35;6.50;1.00
38239;DHT22;24035;48.900;9.188;2023-01-09T04:21:00;6.50;1.00
38239;DHT22;24035;48.900;9.188;2023-01-09T04:23:26;6.40;1.00
38239;DHT22;24035;48.900;9.188;2023-01-09T04:25:52;6.30;1.00
38239;DHT22;24035;48.900;9.188;2023-01-09T04:28:17;6.30;99.90
38239;DHT22;24035;48.900;9.188;2023-01-09T04:30:43;6.20;99.90
38239;DHT22;24035;48.900;9.188;2023-01-09T04:33:09;6.10;1.00
38239;DHT22;24035;48.900;9.188;2023-01-09T04:35:35;6.10;99.90
38239;DHT22;24035;48.900;9.188;2023-01-09T04:38:00;6.10;99.90
38239;DHT22;24035;48.900;9.188;2023-01-09T04:40:26;6.10;99.90
38239;DHT22;24035;48.900;9.188;2023-01-09T04:42:52;6.10;99.90
38239;DHT22;24035;48.900;9.188;2023-01-09T04:45:17;6.10;99.90
38239;DHT22;24035;48.900;9.188;2023-01-09T04:47:43;6.20;1.00
38239;DHT22;24035;48.900;9.188;2023-01-09T04:50:11;6.10;99.90
38239;DHT22;24035;48.900;9.188;2023-01-09T04:52:36;6.00;99.90
38239;DHT22;24035;48.900;9.188;2023-01-09T04:55:02;6.00;99.90
38239;DHT22;24035;48.900;9.188;2023-01-09T04:57:30;6.00;99.90
38239;DHT22;24035;48.900;9.188;2023-01-09T04:59:55;6.00;20.40
38239;DHT22;24035;48.900;9.188;2023-01-09T05:02:21;6.00;8.90
38239;DHT22;24035;48.900;9.188;2023-01-09T05:04:47;6.00;1.00
38239;DHT22;24035;48.900;9.188;2023-01-09T05:07:12;6.10;1.00
38239;DHT22;24035;48.900;9.188;2023-01-09T05:09:38;6.10;1.00
38239;DHT22;24035;48.900;9.188;2023-01-09T05:12:04;6.10;99.90
38239;DHT22;24035;48.900;9.188;2023-01-09T05:14:29;6.10;99.90
38239;DHT22;24035;48.900;9.188;2023-01-09T05:16:55;6.10;99.90
38239;DHT22;24035;48.900;9.188;2023-01-09T05:19:21;6.20;76.40
38239;DHT22;24035;48.900;9.188;2023-01-09T05:21:47;6.20;1.00
38239;DHT22;24035;48.900;9.188;2023-01-09T05:24:13;6.30;1.00
38239;DHT22;24035;48.900;9.188;2023-01-09T05:26:39;6.20;1.00
38239;DHT22;24035;48.900;9.188;2023-01-09T05:29:04;6.30;1.00
38239;DHT22;24035;48.900;9.188;2023-01-09T05:31:30;6.40;1.00
38239;DHT22;24035;48.900;9.188;2023-01-09T05:33:56;6.40;99.90
38239;DHT22;24035;48.900;9.188;2023-01-09T05:36:23;6.40;99.90
38239;DHT22;24035;48.900;9.188;2023-01-09T05:38:49;6.40;99.90
38239;DHT22;24035;48.900;9.188;2023-01-09T05:41:15;6.40;99.90
38239;DHT22;24035;48.900;9.188;2023-01-09T05:43:40;6.30;99.90
38239;DHT22;24035;48.900;9.188;2023-01-09T05:46:06;6.30;99.90
38239;DHT22;24035;48.900;9.188;2023-01-09T05:48:32;6.20;40.20
38239;DHT22;24035;48.900;9.188;2023-01-09T05:50:57;6.10;99.90
38239;DHT22;24035;48.900;9.188;2023-01-09T05:53:23;6.10;99.90
38239;DHT22;24035;48.900;9.188;2023-01-09T05:55:49;5.90;99.90
38239;DHT22;24035;48.900;9.188;2023-01-09T05:58:14;5.90;99.90
38239;DHT22;24035;48.900;9.188;2023-01-09T06:00:40;5.80;99.90
38239;DHT22;24035;48.900;9.188;2023-01-09T06:03:06;5.70;99.90
38239;DHT22;24035;48.900;9.188;2023-01-09T06:05:32;5.70;99.90
38239;DHT22;24035;48.900;9.188;2023-01-09T06:07:58;5.60;99.90
38239;DHT22;24035;48.900;9.188;2023-01-09T06:10:24;5.50;99.90
38239;DHT22;24035;48.900;9.188;2023-01-09T06:12:50;5.50;99.90
38239;DHT22;24035;48.900;9.188;2023-01-09T06:15:16;5.40;99.90
38239;DHT22;24035;48.900;9.188;2023-01-09T06:17:42;5.40;99.90
38239;DHT22;24035;48.900;9.188;2023-01-09T06:20:09;5.40;99.90
38239;DHT22;24035;48.900;9.188;2023-01-09T06:22:35;5.30;99.90
38239;DHT22;24035;48.900;9.188;2023-01-09T06:25:01;5.20;99.90
38239;DHT22;24035;48.900;9.188;2023-01-09T06:27:27;5.10;99.90
38239;DHT22;24035;48.900;9.188;2023-01-09T06:29:53;5.10;99.90
38239;DHT22;24035;48.900;9.188;2023-01-09T06:32:18;5.10;99.90
38239;DHT22;24035;48.900;9.188;2023-01-09T06:34:44;5.20;99.90
38239;DHT22;24035;48.900;9.188;2023-01-09T06:37:10;5.10;99.90
38239;DHT22;24035;48.900;9.188;2023-01-09T06:39:36;5.10;99.90
38239;DHT22;24035;48.900;9.188;2023-01-09T06:42:02;5.00;99.90
38239;DHT22;24035;48.900;9.188;2023-01-09T06:44:27;4.80;99.90
38239;DHT22;24035;48.900;9.188;2023-01-09T06:46:53;4.80;1.00
38239;DHT22;24035;48.900;9.188;2023-01-09T06:49:19;4.80;1.00
38239;DHT22;24035;48.900;9.188;2023-01-09T06:51:50;4.70;1.00
38239;DHT22;24035;48.900;9.188;2023-01-09T06:54:17;4.60;1.00
38239;DHT22;24035;48.900;9.188;2023-01-09T06:56:43;4.60;1.00
38239;DHT22;24035;48.900;9.188;2023-01-09T06:59:09;4.70;1.00
38239;DHT22;24035;48.900;9.188;2023-01-09T07:01:34;4.70;99.90
38239;DHT22;24035;48.900;9.188;2023-01-09T07:04:00;4.90;99.90
38239;DHT22;24035;48.900;9.188;2023-01-09T07:06:26;5.00;1.00
38239;DHT22;24035;48.900;9.188;2023-01-09T07:08:52;5.10;1.00
38239;DHT22;24035;48.900;9.188;2023-01-09T07:11:17;5.20;1.00
38239;DHT22;24035;48.900;9.188;2023-01-09T07:13:43;5.20;1.00
38239;DHT22;24035;48.900;9.188;2023-01-09T07:16:08;5.20;1.00
38239;DHT22;24035;48.900;9.188;2023-01-09T07:18:34;5.30;1.00
38239;DHT22;24035;48.900;9.188;2023-01-09T07:21:01;5.30;1.00
38239;DHT22;24035;48.900;9.188;2023-01-09T07:23:27;5.40;1.00
38239;DHT22;24035;48.900;9.188;2023-01-09T07:25:52;5.40;99.90
38239;DHT22;24035;48.900;9.188;2023-01-09T07:28:18;5.50;99.90
38239;DHT22;24035;48.900;9.188;2023-01-09T07:30:44;5.50;90.60
38239;DHT22;24035;48.900;9.188;2023-01-09T07:33:09;5.40;99.90
38239;DHT22;24035;48.900;9.188;2023-01-09T07:35:36;5.40;99.90
38239;DHT22;24035;48.900;9.188;2023-01-09T07:38:02;5.40;99.90
38239;DHT22;24035;48.900;9.188;2023-01-09T07:40:27;5.50;84.90
38239;DHT22;24035;48.900;9.188;2023-01-09T07:42:53;5.70;1.00
38239;DHT22;24035;48.900;9.188;2023-01-09T07:45:19;5.70;1.00
38239;DHT22;24035;48.900;9.188;2023-01-09T07:47:46;5.80;1.00
38239;DHT22;24035;48.900;9.188;2023-01-09T07:50:11;5.80;1.00
38239;DHT22;24035;48.900;9.188;2023-01-09T07:52:37;5.80;1.00
38239;DHT22;24035;48.900;9.188;2023-01-09T07:55:04;5.80;1.00
38239;DHT22;24035;48.900;9.188;2023-01-09T07:57:29;5.80;1.00
38239;DHT22;24035;48.900;9.188;2023-01-09T07:59:55;5.80;1.00
38239;DHT22;24035;48.900;9.188;2023-01-09T08:02:21;5.70;1.00
38239;DHT22;24035;48.900;9.188;2023-01-09T08:04:46;5.70;1.00
38239;DHT22;24035;48.900;9.188;2023-01-09T08:07:12;5.80;1.00
38239;DHT22;24035;48.900;9.188;2023-01-09T08:09:38;5.80;1.00
38239;DHT22;24035;48.900;9.188;2023-01-09T08:12:04;6.00;1.00
38239;DHT22;24035;48.900;9.188;2023-01-09T08:14:30;6.10;1.00
38239;DHT22;24035;48.900;9.188;2023-01-09T08:16:56;6.30;1.00
38239;DHT22;24035;48.900;9.188;2023-01-09T08:19:21;6.40;99.90
38239;DHT22;24035;48.900;9.188;2023-01-09T08:21:48;6.50;99.90
38239;DHT22;24035;48.900;9.188;2023-01-09T08:24:14;6.50;99.90
38239;DHT22;24035;48.900;9.188;2023-01-09T08:26:40;6.50;99.90
38239;DHT22;24035;48.900;9.188;2023-01-09T08:29:05;6.50;99.90
38239;DHT22;24035;48.900;9.188;2023-01-09T08:31:31;6.70;99.90
38239;DHT22;24035;48.900;9.188;2023-01-09T08:33:57;6.80;99.90
38239;DHT22;24035;48.900;9.188;2023-01-09T08:36:22;6.80;99.90
38239;DHT22;24035;48.900;9.188;2023-01-09T08:38:48;6.80;99.90
38239;DHT22;24035;48.900;9.188;2023-01-09T08:41:13;6.80;99.90
38239;DHT22;24035;48.900;9.188;2023-01-09T08:43:58;6.80;99.90
38239;DHT22;24035;48.900;9.188;2023-01-09T08:46:42;6.90;99.90
38239;DHT22;24035;48.900;9.188;2023-01-09T08:49:26;7.20;99.90
38239;DHT22;24035;48.900;9.188;2023-01-09T08:51:52;7.40;1.00
38239;DHT22;24035;48.900;9.188;2023-01-09T08:54:18;7.50;1.00
38239;DHT22;24035;48.900;9.188;2023-01-09T08:56:43;7.50;1.00
38239;DHT22;24035;48.900;9.188;2023-01-09T08:59:09;7.60;1.00
38239;DHT22;24035;48.900;9.188;2023-01-09T09:01:35;7.50;1.00
38239;DHT22;24035;48.900;9.188;2023-01-09T09:04:02;7.40;1.00
38239;DHT22;24035;48.900;9.188;2023-01-09T09:06:30;7.40;1.00
38239;DHT22;24035;48.900;9.188;2023-01-09T09:08:56;7.30;1.00
38239;DHT22;24035;48.900;9.188;2023-01-09T09:11:21;7.10;1.00
38239;DHT22;24035;48.900;9.188;2023-01-09T09:13:47;7.10;1.00
38239;DHT22;24035;48.900;9.188;2023-01-09T09:16:13;7.00;1.00
38239;DHT22;24035;48.900;9.188;2023-01-09T09:18:38;6.90;1.00
38239;DHT22;24035;48.900;9.188;2023-01-09T09:21:04;6.90;1.00
38239;DHT22;24035;48.900;9.188;2023-01-09T09:23:30;7.00;1.00
38239;DHT22;24035;48.900;9.188;2023-01-09T09:25:55;7.10;1.00
38239;DHT22;24035;48.900;9.188;2023-01-09T09:28:21;7.30;1.00
38239;DHT22;24035;48.900;9.188;2023-01-09T09:30:47;7.50;1.00
38239;DHT22;24035;48.900;9.188;2023-01-09T09:33:13;7.70;1.00
38239;DHT22;24035;48.900;9.188;2023-01-09T09:35:38;7.90;1.00
38239;DHT22;24035;48.900;9.188;2023-01-09T09:38:04;8.10;1.00
38239;DHT22;24035;48.900;9.188;2023-01-09T09:40:59;8.20;99.90
38239;DHT22;24035;48.900;9.188;2023-01-09T09:46:30;8.50;99.90
38239;DHT22;24035;48.900;9.188;2023-01-09T09:49:09;8.40;99.90
38239;DHT22;24035;48.900;9.188;2023-01-09T09:52:02;8.50;99.90
38239;DHT22;24035;48.900;9.188;2023-01-09T09:54:42;8.60;99.90
38239;DHT22;24035;48.900;9.188;2023-01-09T09:57:15;8.60;99.90
38239;DHT22;24035;48.900;9.188;2023-01-09T09:59:42;8.60;99.90
38239;DHT22;24035;48.900;9.188;2023-01-09T10:02:29;8.60;99.90
38239;DHT22;24035;48.900;9.188;2023-01-09T10:05:28;8.60;99.90
38239;DHT22;24035;48.900;9.188;2023-01-09T10:07:55;8.70;99.90
38239;DHT22;24035;48.900;9.188;2023-01-09T10:10:28;8.70;99.90
38239;DHT22;24035;48.900;9.188;2023-01-09T10:12:59;8.70;99.90
38239;DHT22;24035;48.900;9.188;2023-01-09T10:18:34;8.90;88.20
38239;DHT22;24035;48.900;9.188;2023-01-09T10:21:16;8.90;60.20
38239;DHT22;24035;48.900;9.188;2023-01-09T10:24:08;9.00;67.10
38239;DHT22;24035;48.900;9.188;2023-01-09T10:26:46;9.00;90.30
38239;DHT22;24035;48.900;9.188;2023-01-09T10:29:34;9.00;1.00
38239;DHT22;24035;48.900;9.188;2023-01-09T10:32:15;9.00;99.90
38239;DHT22;24035;48.900;9.188;2023-01-09T10:37:44;8.90;46.70
38239;DHT22;24035;48.900;9.188;2023-01-09T10:40:25;8.90;96.10
38239;DHT22;24035;48.900;9.188;2023-01-09T10:43:00;9.10;12.50
38239;DHT22;24035;48.900;9.188;2023-01-09T10:45:38;9.10;2.00
38239;DHT22;24035;48.900;9.188;2023-01-09T10:50:55;9.00;41.10
38239;DHT22;24035;48.900;9.188;2023-01-09T10:53:26;9.00;86.00
38239;DHT22;24035;48.900;9.188;2023-01-09T10:56:17;9.10;1.00
38239;DHT22;24035;48.900;9.188;2023-01-09T10:58:43;9.00;99.90
38239;DHT22;24035;48.900;9.188;2023-01-09T11:01:09;8.90;59.90
38239;DHT22;24035;48.900;9.188;2023-01-09T11:03:35;8.90;92.80
38239;DHT22;24035;48.900;9.188;2023-01-09T11:06:03;8.80;99.90
38239;DHT22;24035;48.900;9.188;2023-01-09T11:08:40;8.90;99.90
38239;DHT22;24035;48.900;9.188;2023-01-09T11:11:08;9.00;97.60
38239;DHT22;24035;48.900;9.188;2023-01-09T11:13:35;9.10;54.10
38239;DHT22;24035;48.900;9.188;2023-01-09T11:16:21;9.20;32.40
38239;DHT22;24035;48.900;9.188;2023-01-09T11:18:59;9.30;13.60
38239;DHT22;24035;48.900;9.188;2023-01-09T11:21:38;9.20;1.00
38239;DHT22;24035;48.900;9.188;2023-01-09T11:26:47;9.20;1.00
38239;DHT22;24035;48.900;9.188;2023-01-09T11:29:14;9.10;99.10
38239;DHT22;24035;48.900;9.188;2023-01-09T11:31:42;9.10;12.30
38239;DHT22;24035;48.900;9.188;2023-01-09T11:34:16;9.20;1.00
38239;DHT22;24035;48.900;9.188;2023-01-09T11:36:43;9.10;1.00
38239;DHT22;24035;48.900;9.188;2023-01-09T11:39:24;9.10;1.00
38239;DHT22;24035;48.900;9.188;2023-01-09T11:41:56;9.30;1.00
38239;DHT22;24035;48.900;9.188;2023-01-09T11:44:22;9.30;1.00
38239;DHT22;24035;48.900;9.188;2023-01-09T11:46:49;9.50;1.00
38239;DHT22;24035;48.900;9.188;2023-01-09T11:51:44;9.40;1.00
38239;DHT22;24035;48.900;9.188;2023-01-09T11:54:27;9.50;1.00
38239;DHT22;24035;48.900;9.188;2023-01-09T11:56:54;9.50;1.00
38239;DHT22;24035;48.900;9.188;2023-01-09T11:59:24;9.60;1.00
38239;DHT22;24035;48.900;9.188;2023-01-09T12:04:54;9.90;1.00
38239;DHT22;24035;48.900;9.188;2023-01-09T12:10:49;9.80;1.00
38239;DHT22;24035;48.900;9.188;2023-01-09T12:24:33;9.50;1.00
38239;DHT22;24035;48.900;9.188;2023-01-09T12:30:26;9.60;1.00
38239;DHT22;24035;48.900;9.188;2023-01-09T12:35:50;9.30;95.60
38239;DHT22;24035;48.900;9.188;2023-01-09T12:38:39;9.10;99.90
38239;DHT22;24035;48.900;9.188;2023-01-09T12:49:39;8.40;99.90
38239;DHT22;24035;48.900;9.188;2023-01-09T12:52:15;8.20;99.90
38239;DHT22;24035;48.900;9.188;2023-01-09T12:57:55;8.20;1.00
38239;DHT22;24035;48.900;9.188;2023-01-09T13:00:31;8.40;1.00
38239;DHT22;24035;48.900;9.188;2023-01-09T13:03:12;8.60;99.90
38239;DHT22;24035;48.900;9.188;2023-01-09T13:05:46;8.60;99.90
38239;DHT22;24035;48.900;9.188;2023-01-09T13:08:20;8.60;99.90
38239;DHT22;24035;48.900;9.188;2023-01-09T13:10:54;8.70;99.90
38239;DHT22;24035;48.900;9.188;2023-01-09T13:16:06;8.50;99.90
38239;DHT22;24035;48.900;9.188;2023-01-09T13:18:41;8.50;99.90
38239;DHT22;24035;48.900;9.188;2023-01-09T13:21:10;8.40;99.90
38239;DHT22;24035;48.900;9.188;2023-01-09T13:23:50;8.30;1.00
38239;DHT22;24035;48.900;9.188;2023-01-09T13:32:20;8.20;1.00
38239;DHT22;24035;48.900;9.188;2023-01-09T13:34:50;8.30;99.90
38239;DHT22;24035;48.900;9.188;2023-01-09T13:37:26;8.30;99.90
38239;DHT22;24035;48.900;9.188;2023-01-09T13:40:18;8.30;99.90
38239;DHT22;24035;48.900;9.188;2023-01-09T13:42:42;8.30;99.90
38239;DHT22;24035;48.900;9.188;2023-01-09T13:47:44;8.20;99.90
38239;DHT22;24035;48.900;9.188;2023-01-09T13:52:40;8.10;32.60
38239;DHT22;24035;48.900;9.188;2023-01-09T14:03:28;7.60;1.00
38239;DHT22;24035;48.900;9.188;2023-01-09T14:08:27;7.50;99.90
38239;DHT22;24035;48.900;9.188;2023-01-09T14:10:54;7.50;1.00
38239;DHT22;24035;48.900;9.188;2023-01-09T14:13:26;7.40;1.00
38239;DHT22;24035;48.900;9.188;2023-01-09T14:18:31;7.20;1.00
38239;DHT22;24035;48.900;9.188;2023-01-09T14:21:05;7.00;1.00
38239;DHT22;24035;48.900;9.188;2023-01-09T14:23:36;6.90;1.00
38239;DHT22;24035;48.900;9.188;2023-01-09T14:26:04;6.90;99.90
38239;DHT22;24035;48.900;9.188;2023-01-09T14:28:31;6.80;99.90
38239;DHT22;24035;48.900;9.188;2023-01-09T14:33:26;6.90;99.90
38239;DHT22;24035;48.900;9.188;2023-01-09T14:36:17;6.90;99.90
38239;DHT22;24035;48.900;9.188;2023-01-09T14:38:58;6.90;99.90
38239;DHT22;24035;48.900;9.188;2023-01-09T14:41:35;7.00;6.50
38239;DHT22;24035;48.900;9.188;2023-01-09T14:47:20;6.90;34.60
38239;DHT22;24035;48.900;9.188;2023-01-09T14:52:27;6.80;99.90
38239;DHT22;24035;48.900;9.188;2023-01-09T14:54:57;6.70;99.90
38239;DHT22;24035;48.900;9.188;2023-01-09T14:57:24;6.60;99.90
38239;DHT22;24035;48.900;9.188;2023-01-09T14:59:58;6.60;99.90
38239;DHT22;24035;48.900;9.188;2023-01-09T15:02:27;6.60;99.90
38239;DHT22;24035;48.900;9.188;2023-01-09T15:04:56;6.60;99.90
38239;DHT22;24035;48.900;9.188;2023-01-09T15:07:24;6.50;99.90
38239;DHT22;24035;48.900;9.188;2023-01-09T15:09:59;6.50;99.90
38239;DHT22;24035;48.900;9.188;2023-01-09T15:12:26;6.50;99.90
38239;DHT22;24035;48.900;9.188;2023-01-09T15:14:55;6.50;99.90
38239;DHT22;24035;48.900;9.188;2023-01-09T15:17:30;6.60;99.90
38239;DHT22;24035;48.900;9.188;2023-01-09T15:20:01;6.70;99.90
38239;DHT22;24035;48.900;9.188;2023-01-09T15:22:31;6.90;1.00
38239;DHT22;24035;48.900;9.188;2023-01-09T15:24:57;7.00;1.00
38239;DHT22;24035;48.900;9.188;2023-01-09T15:27:24;7.10;1.00
38239;DHT22;24035;48.900;9.188;2023-01-09T15:29:51;6.80;99.90
38239;DHT22;24035;48.900;9.188;2023-01-09T15:32:26;6.40;1.00
38239;DHT22;24035;48.900;9.188;2023-01-09T15:34:54;6.10;99.90
38239;DHT22;24035;48.900;9.188;2023-01-09T15:37:26;5.90;1.00
38239;DHT22;24035;48.900;9.188;2023-01-09T15:39:53;5.60;1.00
38239;DHT22;24035;48.900;9.188;2023-01-09T15:42:26;5.50;99.90
38239;DHT22;24035;48.900;9.188;2023-01-09T15:45:37;5.40;99.90
38239;DHT22;24035;48.900;9.188;2023-01-09T15:48:24;5.40;1.00
38239;DHT22;24035;48.900;9.188;2023-01-09T15:51:03;5.30;1.00
38239;DHT22;24035;48.900;9.188;2023-01-09T15:53:30;5.30;1.00
38239;DHT22;24035;48.900;9.188;2023-01-09T15:58:48;5.20;99.90
38239;DHT22;24035;48.900;9.188;2023-01-09T16:01:31;5.20;1.00
38239;DHT22;24035;48.900;9.188;2023-01-09T16:04:10;5.20;1.00
38239;DHT22;24035;48.900;9.188;2023-01-09T16:06:47;5.20;1.00
38239;DHT22;24035;48.900;9.188;2023-01-09T16:09:26;5.20;1.00
38239;DHT22;24035;48.900;9.188;2023-01-09T16:11:55;5.20;1.00
38239;DHT22;24035;48.900;9.188;2023-01-09T16:14:24;5.20;1.00
38239;DHT22;24035;48.900;9.188;2023-01-09T16:17:06;5.30;1.00
38239;DHT22;24035;48.900;9.188;2023-01-09T16:24:45;5.20;1.00
38239;DHT22;24035;48.900;9.188;2023-01-09T16:29:46;5.20;1.00
38239;DHT22;24035;48.900;9.188;2023-01-09T16:32:22;5.30;1.00
38239;DHT22;24035;48.900;9.188;2023-01-09T16:34:52;5.30;1.00
38239;DHT22;24035;48.900;9.188;2023-01-09T16:37:18;5.30;1.00
38239;DHT22;24035;48.900;9.188;2023-01-09T16:42:31;5.40;1.00
38239;DHT22;24035;48.900;9.188;2023-01-09T16:45:15;5.40;1.00
38239;DHT22;24035;48.900;9.188;2023-01-09T16:47:41;5.40;1.00
38239;DHT22;24035;48.900;9.188;2023-01-09T16:50:10;5.40;1.00
38239;DHT22;24035;48.900;9.188;2023-01-09T16:52:36;5.40;1.00
38239;DHT22;24035;48.900;9.188;2023-01-09T16:55:02;5.50;1.00
38239;DHT22;24035;48.900;9.188;2023-01-09T16:57:27;5.50;1.00
38239;DHT22;24035;48.900;9.188;2023-01-09T16:59:54;5.60;1.00
38239;DHT22;24035;48.900;9.188;2023-01-09T17:02:24;5.60;45.60
38239;DHT22;24035;48.900;9.188;2023-01-09T17:04:50;5.60;19.80
38239;DHT22;24035;48.900;9.188;2023-01-09T17:07:16;5.70;1.00
38239;DHT22;24035;48.900;9.188;2023-01-09T17:09:43;5.70;1.00
38239;DHT22;24035;48.900;9.188;2023-01-09T17:12:18;5.80;1.00
38239;DHT22;24035;48.900;9.188;2023-01-09T17:14:48;5.80;1.00
38239;DHT22;24035;48.900;9.188;2023-01-09T17:17:15;5.90;1.00
38239;DHT22;24035;48.900;9.188;2023-01-09T17:19:41;6.00;1.00
38239;DHT22;24035;48.900;9.188;2023-01-09T17:22:07;6.00;1.00
38239;DHT22;24035;48.900;9.188;2023-01-09T17:24:34;6.00;99.90
38239;DHT22;24035;48.900;9.188;2023-01-09T17:27:24;6.00;99.90
38239;DHT22;24035;48.900;9.188;2023-01-09T17:30:10;6.00;99.90
38239;DHT22;24035;48.900;9.188;2023-01-09T17:32:36;6.00;99.90
38239;DHT22;24035;48.900;9.188;2023-01-09T17:35:02;6.10;99.90
38239;DHT22;24035;48.900;9.188;2023-01-09T17:37:29;6.10;99.90
38239;DHT22;24035;48.900;9.188;2023-01-09T17:39:55;6.10;95.70
38239;DHT22;24035;48.900;9.188;2023-01-09T17:42:25;6.00;99.90
38239;DHT22;24035;48.900;9.188;2023-01-09T17:44:51;5.90;99.90
38239;DHT22;24035;48.900;9.188;2023-01-09T17:47:20;5.90;99.90
38239;DHT22;24035;48.900;9.188;2023-01-09T17:49:46;5.90;99.90
38239;DHT22;24035;48.900;9.188;2023-01-09T17:52:12;5.90;99.90
38239;DHT22;24035;48.900;9.188;2023-01-09T17:54:37;6.00;99.90
38239;DHT22;24035;48.900;9.188;2023-01-09T17:57:03;6.00;1.00
38239;DHT22;24035;48.900;9.188;2023-01-09T17:59:29;6.00;99.90
38239;DHT22;24035;48.900;9.188;2023-01-09T18:01:55;6.10;99.90
38239;DHT22;24035;48.900;9.188;2023-01-09T18:04:21;6.00;99.90
38239;DHT22;24035;48.900;9.188;2023-01-09T18:06:46;6.10;99.90
38239;DHT22;24035;48.900;9.188;2023-01-09T18:09:15;6.10;99.90
38239;DHT22;24035;48.900;9.188;2023-01-09T18:11:43;6.10;99.90
38239;DHT22;24035;48.900;9.188;2023-01-09T18:14:09;6.10;99.90
38239;DHT22;24035;48.900;9.188;2023-01-09T18:16:35;6.00;99.90
38239;DHT22;24035;48.900;9.188;2023-01-09T18:19:03;5.90;1.00
38239;DHT22;24035;48.900;9.188;2023-01-09T18:21:29;5.90;1.00
38239;DHT22;24035;48.900;9.188;2023-01-09T18:23:56;5.80;1.00